createdAt,value
2022-12-11T00:00:40.531Z,19.37
2022-12-11T00:03:15.451Z,19.20
2022-12-11T00:05:44.808Z,20.23
2022-12-11T00:08:13.610Z,19.23
2022-12-11T00:10:48.224Z,21.13
2022-12-11T00:13:16.078Z,20.80
2022-12-11T00:15:43.882Z,21.57
2022-12-11T00:18:14.902Z,20.47
2022-12-11T00:20:42.975Z,22.90
2022-12-11T00:23:11.244Z,25.47
2022-12-11T00:25:43.063Z,23.27
2022-12-11T00:28:11.140Z,24.03
2022-12-11T00:30:41.399Z,22.13
2022-12-11T00:33:12.188Z,24.27
2022-12-11T00:35:43.130Z,22.63
2022-12-11T00:38:15.639Z,24.50
2022-12-11T00:40:44.079Z,22.63
2022-12-11T00:43:12.136Z,23.00
2022-12-11T00:45:42.549Z,23.53
2022-12-11T00:48:11.103Z,22.00
2022-12-11T00:50:39.024Z,19.77
2022-12-11T00:53:08.571Z,20.23
2022-12-11T00:55:38.565Z,18.10
2022-12-11T00:58:06.754Z,18.80
2022-12-11T01:00:35.273Z,19.27
2022-12-11T01:03:03.397Z,17.70
2022-12-11T01:05:31.562Z,18.10
2022-12-11T01:07:59.987Z,19.03
2022-12-11T01:10:28.478Z,17.90
2022-12-11T01:12:58.700Z,17.57
2022-12-11T01:15:29.556Z,18.70
2022-12-11T01:17:58.393Z,18.00
2022-12-11T01:20:28.375Z,18.50
2022-12-11T01:22:57.646Z,18.10
2022-12-11T01:25:26.353Z,19.33
2022-12-11T01:27:57.041Z,17.67
2022-12-11T01:30:26.676Z,18.03
2022-12-11T01:32:54.843Z,17.27
2022-12-11T01:35:22.722Z,17.60
2022-12-11T01:37:50.617Z,17.20
2022-12-11T01:40:20.770Z,17.13
2022-12-11T01:42:49.174Z,17.37
2022-12-11T01:45:34.100Z,16.30
2022-12-11T01:48:07.616Z,17.23
2022-12-11T01:50:39.743Z,17.00
2022-12-11T01:53:09.740Z,17.80
2022-12-11T01:55:41.072Z,16.93
2022-12-11T01:58:09.904Z,16.33
2022-12-11T02:00:39.318Z,17.40
2022-12-11T02:03:07.192Z,19.20
2022-12-11T02:05:35.146Z,18.63
2022-12-11T02:08:04.239Z,19.23
2022-12-11T02:10:51.147Z,20.80
2022-12-11T02:13:26.079Z,18.47
2022-12-11T02:16:03.884Z,17.67
2022-12-11T02:18:37.762Z,17.03
2022-12-11T02:21:12.009Z,16.50
2022-12-11T02:23:59.311Z,17.10
2022-12-11T02:26:42.095Z,15.77
2022-12-11T02:29:18.842Z,15.30
2022-12-11T02:31:53.254Z,15.47
2022-12-11T02:34:28.546Z,16.77
2022-12-11T02:37:00.421Z,16.47
2022-12-11T02:39:29.972Z,15.47
2022-12-11T02:41:58.363Z,17.00
2022-12-11T02:44:31.561Z,16.33
2022-12-11T02:47:00.679Z,18.47
2022-12-11T02:49:30.164Z,18.43
2022-12-11T02:52:00.229Z,17.97
2022-12-11T02:54:31.614Z,18.27
2022-12-11T02:57:04.763Z,19.33
2022-12-11T02:59:37.309Z,19.30
2022-12-11T03:02:05.943Z,18.57
2022-12-11T03:04:36.286Z,20.80
2022-12-11T03:07:13.032Z,19.00
2022-12-11T03:09:41.832Z,19.53
2022-12-11T03:12:11.568Z,20.10
2022-12-11T03:14:43.650Z,20.00
2022-12-11T03:17:17.017Z,20.27
2022-12-11T03:19:51.267Z,19.40
2022-12-11T03:22:23.892Z,20.43
2022-12-11T03:24:54.179Z,19.57
2022-12-11T03:27:29.356Z,20.43
2022-12-11T03:30:01.707Z,20.20
2022-12-11T03:32:32.700Z,19.80
2022-12-11T03:35:06.396Z,19.20
2022-12-11T03:37:38.349Z,20.07
2022-12-11T03:40:11.602Z,20.13
2022-12-11T03:42:41.402Z,18.80
2022-12-11T03:45:12.299Z,19.67
2022-12-11T03:47:42.235Z,20.33
2022-12-11T03:50:13.144Z,20.67
2022-12-11T03:52:45.767Z,20.90
2022-12-11T03:55:17.107Z,20.13
2022-12-11T03:57:45.612Z,21.17
2022-12-11T04:00:18.024Z,21.13
2022-12-11T04:03:11.343Z,21.20
2022-12-11T04:05:40.815Z,19.37
2022-12-11T04:08:08.705Z,20.30
2022-12-11T04:10:36.608Z,21.50
2022-12-11T04:13:04.511Z,20.77
2022-12-11T04:15:32.939Z,21.30
2022-12-11T04:18:18.239Z,21.83
2022-12-11T04:21:03.602Z,20.33
2022-12-11T04:23:49.143Z,21.60
2022-12-11T04:26:19.228Z,21.67
2022-12-11T04:28:48.729Z,20.17
2022-12-11T04:31:20.422Z,19.83
2022-12-11T04:33:49.079Z,20.47
2022-12-11T04:36:17.713Z,20.77
2022-12-11T04:38:45.846Z,19.07
2022-12-11T04:41:15.864Z,21.30
2022-12-11T04:43:45.360Z,20.17
2022-12-11T04:46:15.584Z,20.93
2022-12-11T04:48:45.961Z,20.63
2022-12-11T04:51:14.962Z,20.70
2022-12-11T04:53:43.652Z,19.67
2022-12-11T04:56:14.737Z,20.40
2022-12-11T04:58:43.856Z,21.53
2022-12-11T05:01:13.334Z,20.50
2022-12-11T05:03:41.577Z,21.30
2022-12-11T05:06:12.100Z,20.93
2022-12-11T05:08:41.912Z,21.67
2022-12-11T05:11:11.673Z,21.33
2022-12-11T05:13:40.672Z,22.03
2022-12-11T05:16:10.606Z,20.50
2022-12-11T05:18:38.643Z,20.10
2022-12-11T05:21:08.734Z,22.07
2022-12-11T05:23:39.129Z,20.77
2022-12-11T05:26:09.483Z,20.43
2022-12-11T05:28:39.859Z,20.60
2022-12-11T05:31:10.002Z,21.47
2022-12-11T05:33:38.254Z,20.90
2022-12-11T05:36:07.862Z,20.87
2022-12-11T05:38:36.230Z,21.07
2022-12-11T05:41:07.566Z,20.53
2022-12-11T05:43:37.805Z,20.40
2022-12-11T05:46:10.023Z,20.03
2022-12-11T05:48:39.023Z,20.17
2022-12-11T05:51:08.339Z,19.57
2022-12-11T05:53:37.424Z,21.90
2022-12-11T05:56:08.961Z,19.80
2022-12-11T05:58:37.385Z,21.30
2022-12-11T06:01:09.095Z,20.33
2022-12-11T06:03:37.007Z,21.27
2022-12-11T06:06:05.991Z,19.50
2022-12-11T06:08:34.162Z,20.03
2022-12-11T06:11:02.747Z,20.33
2022-12-11T06:13:32.466Z,20.70
2022-12-11T06:16:02.636Z,20.63
2022-12-11T06:18:33.539Z,20.60
2022-12-11T06:21:01.559Z,21.53
2022-12-11T06:23:32.627Z,20.57
2022-12-11T06:26:00.846Z,19.77
2022-12-11T06:28:28.798Z,19.60
2022-12-11T06:31:00.175Z,20.93
2022-12-11T06:33:28.320Z,20.07
2022-12-11T06:35:56.699Z,21.33
2022-12-11T06:38:24.721Z,20.47
2022-12-11T06:40:56.138Z,20.97
2022-12-11T06:43:24.205Z,20.60
2022-12-11T06:45:52.579Z,19.17
2022-12-11T06:48:21.962Z,20.30
2022-12-11T06:50:49.787Z,20.23
2022-12-11T06:53:17.754Z,20.13
2022-12-11T06:55:45.645Z,19.30
2022-12-11T06:58:13.592Z,19.73
2022-12-11T07:00:41.668Z,19.50
2022-12-11T07:03:11.061Z,20.13
2022-12-11T07:05:40.559Z,19.50
2022-12-11T07:08:08.519Z,19.33
2022-12-11T07:10:36.555Z,17.83
2022-12-11T07:13:04.569Z,19.13
2022-12-11T07:15:34.412Z,19.43
2022-12-11T07:18:04.400Z,19.33
2022-12-11T07:20:32.304Z,18.63
2022-12-11T07:23:01.806Z,18.67
2022-12-11T07:25:29.786Z,19.03
2022-12-11T07:27:57.937Z,18.90
2022-12-11T07:30:25.924Z,18.70
2022-12-11T07:32:54.081Z,19.00
2022-12-11T07:35:22.046Z,19.20
2022-12-11T07:37:49.930Z,19.43
2022-12-11T07:40:19.392Z,19.00
2022-12-11T07:42:47.521Z,18.70
2022-12-11T07:45:15.440Z,17.57
2022-12-11T07:47:43.504Z,18.40
2022-12-11T07:50:11.512Z,18.73
2022-12-11T07:52:39.959Z,18.47
2022-12-11T07:55:08.286Z,19.00
2022-12-11T07:57:37.993Z,19.10
2022-12-11T08:00:07.481Z,18.77
2022-12-11T08:02:40.311Z,18.57
2022-12-11T08:05:09.915Z,18.27
2022-12-11T08:07:38.413Z,17.63
2022-12-11T08:10:07.461Z,17.63
2022-12-11T08:12:37.144Z,17.77
2022-12-11T08:15:05.948Z,17.63
2022-12-11T08:17:39.713Z,17.53
2022-12-11T08:20:09.425Z,18.57
2022-12-11T08:22:37.355Z,18.20
2022-12-11T08:25:05.849Z,17.67
2022-12-11T08:27:33.794Z,18.40
2022-12-11T08:30:03.096Z,18.67
2022-12-11T08:32:30.832Z,17.93
2022-12-11T08:34:58.750Z,18.17
2022-12-11T08:37:26.688Z,17.75
2022-12-11T08:39:54.579Z,16.93
2022-12-11T08:42:22.871Z,19.10
2022-12-11T08:44:51.818Z,17.33
2022-12-11T08:47:23.084Z,17.33
2022-12-11T08:49:51.012Z,17.37
2022-12-11T08:52:18.946Z,17.30
2022-12-11T08:54:46.759Z,18.87
2022-12-11T08:57:14.581Z,17.70
2022-12-11T08:59:42.592Z,17.23
2022-12-11T09:02:12.765Z,17.93
2022-12-11T09:04:42.780Z,16.70
2022-12-11T09:07:10.590Z,17.67
2022-12-11T09:09:38.684Z,16.20
2022-12-11T09:12:06.841Z,16.80
2022-12-11T09:14:35.523Z,17.47
2022-12-11T09:17:06.512Z,16.60
2022-12-11T09:19:34.544Z,16.40
2022-12-11T09:22:03.904Z,19.03
2022-12-11T09:24:31.829Z,17.17
2022-12-11T09:26:59.688Z,17.67
2022-12-11T09:29:27.608Z,17.33
2022-12-11T09:31:55.460Z,17.13
2022-12-11T09:34:28.847Z,16.63
2022-12-11T09:36:57.886Z,19.90
2022-12-11T09:39:27.207Z,22.20
2022-12-11T09:42:01.397Z,22.13
2022-12-11T09:44:46.967Z,20.13
2022-12-11T09:47:23.094Z,18.57
2022-12-11T09:49:59.983Z,17.50
2022-12-11T09:52:35.663Z,16.47
2022-12-11T09:55:14.132Z,15.37
2022-12-11T09:57:54.202Z,15.70
2022-12-11T10:00:29.309Z,16.53
2022-12-11T10:03:22.983Z,15.97
2022-12-11T10:06:04.077Z,15.50
2022-12-11T10:08:38.357Z,16.30
2022-12-11T10:11:24.033Z,16.83
2022-12-11T10:14:00.159Z,15.53
2022-12-11T10:16:36.857Z,15.47
2022-12-11T10:19:05.386Z,16.03
2022-12-11T10:21:39.955Z,16.73
2022-12-11T10:24:33.789Z,16.30
2022-12-11T10:27:16.096Z,15.43
2022-12-11T10:29:44.144Z,14.80
2022-12-11T10:32:23.492Z,15.30
2022-12-11T10:34:57.925Z,15.20
2022-12-11T10:37:25.837Z,14.27
2022-12-11T10:39:53.961Z,15.23
2022-12-11T10:42:24.135Z,15.13
2022-12-11T10:45:00.612Z,16.13
2022-12-11T10:47:29.314Z,15.50
2022-12-11T10:50:00.245Z,15.73
2022-12-11T10:52:32.972Z,16.57
2022-12-11T10:55:03.764Z,16.40
2022-12-11T10:57:35.951Z,15.83
2022-12-11T11:00:07.774Z,15.30
2022-12-11T11:02:38.453Z,16.17
2022-12-11T11:05:14.495Z,16.37
2022-12-11T11:07:42.778Z,16.87
2022-12-11T11:10:18.334Z,15.87
2022-12-11T11:12:49.560Z,15.97
2022-12-11T11:15:20.601Z,16.80
2022-12-11T11:17:54.994Z,15.63
2022-12-11T11:20:26.868Z,15.10
2022-12-11T11:22:57.313Z,16.00
2022-12-11T11:25:27.069Z,16.43
2022-12-11T11:27:57.805Z,15.57
2022-12-11T11:30:30.002Z,15.03
2022-12-11T11:33:00.778Z,14.60
2022-12-11T11:35:31.084Z,15.73
2022-12-11T11:38:04.921Z,16.23
2022-12-11T11:40:38.484Z,16.23
2022-12-11T11:43:16.852Z,16.53
2022-12-11T11:45:50.871Z,16.33
2022-12-11T11:48:32.368Z,17.10
2022-12-11T11:51:00.467Z,17.90
2022-12-11T11:53:32.971Z,17.27
2022-12-11T11:56:14.661Z,16.20
2022-12-11T11:58:49.596Z,17.30
2022-12-11T12:01:20.019Z,18.20
2022-12-11T12:03:50.163Z,16.30
2022-12-11T12:06:28.578Z,17.10
2022-12-11T12:09:04.256Z,16.20
2022-12-11T12:11:39.848Z,14.77
2022-12-11T12:14:50.705Z,15.37
2022-12-11T12:17:17.724Z,15.03
2022-12-11T12:19:53.736Z,15.00
2022-12-11T12:22:47.018Z,14.63
2022-12-11T12:25:23.806Z,14.30
2022-12-11T12:28:00.697Z,13.97
2022-12-11T12:30:37.929Z,14.30
2022-12-11T12:33:19.763Z,13.53
2022-12-11T12:36:00.879Z,13.03
2022-12-11T12:38:40.652Z,13.17
2022-12-11T12:41:19.599Z,12.97
2022-12-11T12:44:03.792Z,12.43
2022-12-11T12:46:49.066Z,12.40
2022-12-11T12:49:21.057Z,13.80
2022-12-11T12:51:50.565Z,11.83
2022-12-11T12:54:20.902Z,12.43
2022-12-11T12:56:50.193Z,12.43
2022-12-11T12:59:23.654Z,13.17
2022-12-11T13:01:57.107Z,13.33
2022-12-11T13:04:54.887Z,13.23
2022-12-11T13:07:29.769Z,13.17
2022-12-11T13:10:01.847Z,12.67
2022-12-11T13:12:41.528Z,13.03
2022-12-11T13:15:39.607Z,13.60
2022-12-11T13:18:33.481Z,12.80
2022-12-11T13:21:02.860Z,12.80
2022-12-11T13:23:32.247Z,13.90
2022-12-11T13:26:01.948Z,14.10
2022-12-11T13:28:46.580Z,14.23
2022-12-11T13:31:35.019Z,14.70
2022-12-11T13:34:18.574Z,13.47
2022-12-11T13:36:51.259Z,15.37
2022-12-11T13:39:23.554Z,14.67
2022-12-11T13:41:54.751Z,15.30
2022-12-11T13:44:27.068Z,15.07
2022-12-11T13:46:57.043Z,15.50
2022-12-11T13:49:29.965Z,16.13
2022-12-11T13:52:00.105Z,15.60
2022-12-11T13:54:29.489Z,15.27
2022-12-11T13:57:03.553Z,15.50
2022-12-11T13:59:34.638Z,16.27
2022-12-11T14:02:07.467Z,16.20
2022-12-11T14:04:38.761Z,15.97
2022-12-11T14:07:10.027Z,15.90
2022-12-11T14:09:41.461Z,16.37
2022-12-11T14:12:17.345Z,16.80
2022-12-11T14:14:47.869Z,16.07
2022-12-11T14:17:20.549Z,16.83
2022-12-11T14:19:50.362Z,17.30
2022-12-11T14:22:20.460Z,16.80
2022-12-11T14:24:53.693Z,17.40
2022-12-11T14:27:22.432Z,16.43
2022-12-11T14:29:51.392Z,17.27
2022-12-11T14:32:23.461Z,16.33
2022-12-11T14:34:53.801Z,17.33
2022-12-11T14:37:24.673Z,16.73
2022-12-11T14:39:59.997Z,16.33
2022-12-11T14:42:32.496Z,17.20
2022-12-11T14:45:07.417Z,16.23
2022-12-11T14:47:40.606Z,17.23
2022-12-11T14:50:19.139Z,15.93
2022-12-11T14:52:54.553Z,16.80
2022-12-11T14:55:25.925Z,15.53
2022-12-11T14:57:57.082Z,17.17
2022-12-11T15:00:27.907Z,17.80
2022-12-11T15:03:01.109Z,17.30
2022-12-11T15:05:35.729Z,15.90
2022-12-11T15:08:24.557Z,14.60
2022-12-11T15:11:12.152Z,14.10
2022-12-11T15:13:53.254Z,13.57
2022-12-11T15:16:22.629Z,14.90
2022-12-11T15:18:52.563Z,14.10
2022-12-11T15:21:30.810Z,15.43
2022-12-11T15:24:00.596Z,13.27
2022-12-11T15:26:36.436Z,13.73
2022-12-11T15:29:06.725Z,14.27
2022-12-11T15:31:36.217Z,14.50
2022-12-11T15:34:04.433Z,14.20
2022-12-11T15:36:36.166Z,12.53
2022-12-11T15:39:08.738Z,14.20
2022-12-11T15:41:37.205Z,13.77
2022-12-11T15:44:05.733Z,13.50
2022-12-11T15:46:37.635Z,13.33
2022-12-11T15:49:12.497Z,13.47
2022-12-11T15:51:43.253Z,14.07
2022-12-11T15:54:11.673Z,13.20
2022-12-11T15:56:39.895Z,13.10
2022-12-11T15:59:07.977Z,14.33
2022-12-11T16:01:36.077Z,13.70
2022-12-11T16:04:05.407Z,14.40
2022-12-11T16:06:34.155Z,13.97
2022-12-11T16:09:05.065Z,14.13
2022-12-11T16:11:33.130Z,13.10
2022-12-11T16:14:04.454Z,12.40
2022-12-11T16:16:33.327Z,14.87
2022-12-11T16:19:01.620Z,13.80
2022-12-11T16:21:29.518Z,15.20
2022-12-11T16:23:57.520Z,14.27
2022-12-11T16:26:27.252Z,14.17
2022-12-11T16:28:55.135Z,13.53
2022-12-11T16:31:23.129Z,13.23
2022-12-11T16:33:51.090Z,13.87
2022-12-11T16:36:20.690Z,13.97
2022-12-11T16:38:53.593Z,14.20
2022-12-11T16:41:22.876Z,14.40
2022-12-11T16:43:52.731Z,14.13
2022-12-11T16:46:21.360Z,13.97
2022-12-11T16:48:49.554Z,14.70
2022-12-11T16:51:18.274Z,13.77
2022-12-11T16:53:46.537Z,13.27
2022-12-11T16:56:14.625Z,14.00
2022-12-11T16:58:42.740Z,14.13
2022-12-11T17:01:13.942Z,13.40
2022-12-11T17:03:43.244Z,13.40
2022-12-11T17:06:14.750Z,13.07
2022-12-11T17:08:42.904Z,13.83
2022-12-11T17:11:13.007Z,14.27
2022-12-11T17:13:41.626Z,13.63
2022-12-11T17:16:13.942Z,13.93
2022-12-11T17:18:43.597Z,14.73
2022-12-11T17:21:13.628Z,13.37
2022-12-11T17:23:42.151Z,15.07
2022-12-11T17:26:10.740Z,15.03
2022-12-11T17:28:39.285Z,15.13
2022-12-11T17:31:08.545Z,13.87
2022-12-11T17:33:38.010Z,14.33
2022-12-11T17:36:08.364Z,13.43
2022-12-11T17:38:36.599Z,13.80
2022-12-11T17:41:07.201Z,13.17
2022-12-11T17:43:35.350Z,13.67
2022-12-11T17:46:04.943Z,13.60
2022-12-11T17:48:34.463Z,12.97
2022-12-11T17:51:07.437Z,14.77
2022-12-11T17:53:36.883Z,14.57
2022-12-11T17:56:06.831Z,13.67
2022-12-11T17:58:35.016Z,14.57
2022-12-11T18:01:08.478Z,14.50
2022-12-11T18:03:38.040Z,14.17
2022-12-11T18:06:10.881Z,14.20
2022-12-11T18:08:39.477Z,13.90
2022-12-11T18:11:09.013Z,13.13
2022-12-11T18:13:37.412Z,13.43
2022-12-11T18:16:07.850Z,13.77
2022-12-11T18:18:36.233Z,14.33
2022-12-11T18:21:04.364Z,13.63
2022-12-11T18:23:34.522Z,15.33
2022-12-11T18:26:02.512Z,14.13
2022-12-11T18:28:32.511Z,16.80
2022-12-11T18:31:02.149Z,13.60
2022-12-11T18:33:30.940Z,13.63
2022-12-11T18:35:58.927Z,14.07
2022-12-11T18:38:26.742Z,13.40
2022-12-11T18:40:56.385Z,14.33
2022-12-11T18:43:24.564Z,14.40
2022-12-11T18:45:52.400Z,14.20
2022-12-11T18:48:20.391Z,12.97
2022-12-11T18:50:50.532Z,13.33
2022-12-11T18:53:19.561Z,14.30
2022-12-11T18:55:50.125Z,13.83
2022-12-11T18:58:20.652Z,13.10
2022-12-11T19:00:48.989Z,13.63
2022-12-11T19:03:17.359Z,12.60
2022-12-11T19:05:45.215Z,13.57
2022-12-11T19:08:14.054Z,13.13
2022-12-11T19:10:43.853Z,12.63
2022-12-11T19:13:12.578Z,13.30
2022-12-11T19:15:43.974Z,12.80
2022-12-11T19:18:12.676Z,13.47
2022-12-11T19:20:56.751Z,13.87
2022-12-11T19:23:31.797Z,13.27
2022-12-11T19:25:59.740Z,13.50
2022-12-11T19:28:27.859Z,13.27
2022-12-11T19:30:57.947Z,14.17
2022-12-11T19:33:25.919Z,14.30
2022-12-11T19:36:02.037Z,13.73
2022-12-11T19:38:29.869Z,13.47
2022-12-11T19:40:57.780Z,12.63
2022-12-11T19:43:25.747Z,14.37
2022-12-11T19:45:53.668Z,14.47
2022-12-11T19:48:22.874Z,12.90
2022-12-11T19:50:50.769Z,13.13
2022-12-11T19:53:18.839Z,12.93
2022-12-11T19:55:50.779Z,13.90
2022-12-11T19:58:18.943Z,13.67
2022-12-11T20:00:47.383Z,14.23
2022-12-11T20:03:15.353Z,14.23
2022-12-11T20:05:44.844Z,13.67
2022-12-11T20:08:43.081Z,14.83
2022-12-11T20:11:05.386Z,15.13
2022-12-11T20:13:36.687Z,14.50
2022-12-11T20:16:07.244Z,14.30
2022-12-11T20:18:35.770Z,14.53
2022-12-11T20:21:08.065Z,13.43
2022-12-11T20:23:36.828Z,13.93
2022-12-11T20:26:08.406Z,15.20
2022-12-11T20:28:36.934Z,15.30
2022-12-11T20:31:06.603Z,14.73
2022-12-11T20:33:34.661Z,14.50
2022-12-11T20:36:02.690Z,14.80
2022-12-11T20:38:34.602Z,13.20
2022-12-11T20:41:02.920Z,13.47
2022-12-11T20:43:31.013Z,14.33
2022-12-11T20:46:00.085Z,15.47
2022-12-11T20:48:28.390Z,14.70
2022-12-11T20:51:00.396Z,14.63
2022-12-11T20:53:28.477Z,14.43
2022-12-11T20:55:57.740Z,15.33
2022-12-11T20:58:25.694Z,15.40
2022-12-11T21:00:55.376Z,15.47
2022-12-11T21:03:23.408Z,16.80
2022-12-11T21:05:51.208Z,17.17
2022-12-11T21:08:19.141Z,17.73
2022-12-11T21:10:47.436Z,16.27
2022-12-11T21:13:17.293Z,17.20
2022-12-11T21:15:45.090Z,16.73
2022-12-11T21:18:13.179Z,17.80
2022-12-11T21:20:41.171Z,18.67
2022-12-11T21:23:08.996Z,17.83
2022-12-11T21:25:40.617Z,18.30
2022-12-11T21:28:08.767Z,18.30
2022-12-11T21:30:43.582Z,16.23
2022-12-11T21:33:11.540Z,18.70
2022-12-11T21:35:39.666Z,16.77
2022-12-11T21:38:07.710Z,17.10
2022-12-11T21:40:35.769Z,17.63
2022-12-11T21:43:03.687Z,17.03
2022-12-11T21:45:59.679Z,16.53
2022-12-11T21:48:21.514Z,15.53
2022-12-11T21:50:49.392Z,15.07
2022-12-11T21:53:17.330Z,16.37
2022-12-11T21:55:45.175Z,16.80
2022-12-11T21:58:13.134Z,16.47
2022-12-11T22:00:41.083Z,16.97
2022-12-11T22:03:09.275Z,16.13
2022-12-11T22:05:38.609Z,16.40
2022-12-11T22:08:07.145Z,15.50
2022-12-11T22:10:35.205Z,16.13
2022-12-11T22:13:03.614Z,16.50
2022-12-11T22:15:32.651Z,16.57
2022-12-11T22:18:00.747Z,16.33
2022-12-11T22:20:29.006Z,16.63
2022-12-11T22:22:58.319Z,16.00
2022-12-11T22:25:26.100Z,16.50
2022-12-11T22:27:54.050Z,17.47
2022-12-11T22:30:22.054Z,17.20
2022-12-11T22:32:49.925Z,16.80
2022-12-11T22:35:17.977Z,16.97
2022-12-11T22:37:45.937Z,17.57
2022-12-11T22:40:15.592Z,16.53
2022-12-11T22:42:44.208Z,16.10
2022-12-11T22:45:12.791Z,16.60
2022-12-11T22:47:41.191Z,17.50
2022-12-11T22:50:09.751Z,16.67
2022-12-11T22:52:37.829Z,17.50
2022-12-11T22:55:06.872Z,16.60
2022-12-11T22:57:38.519Z,17.07
2022-12-11T23:00:09.884Z,17.20
2022-12-11T23:02:38.721Z,17.07
2022-12-11T23:05:07.661Z,16.93
2022-12-11T23:07:35.661Z,17.17
2022-12-11T23:10:03.925Z,16.80
2022-12-11T23:12:31.797Z,16.50
2022-12-11T23:15:01.432Z,15.80
2022-12-11T23:17:29.290Z,17.30
2022-12-11T23:19:57.254Z,15.80
2022-12-11T23:22:25.237Z,16.53
2022-12-11T23:24:53.450Z,16.60
2022-12-11T23:27:21.412Z,17.43
2022-12-11T23:29:49.594Z,17.00
2022-12-11T23:32:19.121Z,17.57
2022-12-11T23:34:47.109Z,16.70
2022-12-11T23:37:15.716Z,17.93
2022-12-11T23:39:43.797Z,16.93
2022-12-11T23:42:11.844Z,18.17
2022-12-11T23:44:39.856Z,18.07
2022-12-11T23:47:08.133Z,18.33
2022-12-11T23:49:38.694Z,19.10
2022-12-11T23:52:06.898Z,19.10
2022-12-11T23:54:34.905Z,20.67
2022-12-11T23:57:02.872Z,19.93
2022-12-11T23:59:30.861Z,20.10
